Time;durP1;ratioP1;P1;durP2;ratioP2;P2;SDS_P1;SDS_P2;PMS_P1;PMS_P2;Temp;Humidity;BMP_temperature;BMP_pressure;BME280_temperature;BME280_humidity;BME280_pressure;Samples;Min_cycle;Max_cycle;Signal;HPM_P1;HPM_P2
2022/04/02 00:00:16;;;;;;;52.28;34.60;;;;;;;4.60;92.46;98626.19;5096299;28;20035;-68
2022/04/02 00:02:42;;;;;;;53.50;36.67;;;;;;;4.55;93.64;98609.00;5076908;28;20462;-68
2022/04/02 00:05:08;;;;;;;52.65;37.45;;;;;;;4.51;93.46;98594.31;5090933;28;20035;-72
2022/04/02 00:07:33;;;;;;;54.75;37.75;;;;;;;4.49;93.08;98602.41;5098288;28;20066;-72
2022/04/02 00:09:58;;;;;;;57.22;38.88;;;;;;;4.54;93.43;98607.31;5094551;28;20628;-71
2022/04/02 00:12:24;;;;;;;57.22;38.15;;;;;;;4.53;93.35;98598.53;5091215;28;20031;-71
2022/04/02 00:14:49;;;;;;;54.35;37.10;;;;;;;4.54;92.98;98586.91;5096932;28;20082;-71
2022/04/02 00:17:16;;;;;;;56.90;38.95;;;;;;;4.54;93.66;98588.72;5093732;28;20077;-73
2022/04/02 00:19:41;;;;;;;58.97;38.28;;;;;;;4.46;93.79;98586.75;5093780;28;20693;-71
2022/04/02 00:22:06;;;;;;;56.72;37.97;;;;;;;4.45;93.83;98589.56;5099392;28;20032;-72
2022/04/02 00:24:32;;;;;;;55.50;37.83;;;;;;;4.46;94.18;98593.91;5096081;28;20093;-72
2022/04/02 00:26:58;;;;;;;55.05;37.30;;;;;;;4.39;93.89;98569.72;5082944;28;20035;-72
2022/04/02 00:29:23;;;;;;;56.45;37.60;;;;;;;4.37;94.29;98581.44;5094858;28;20051;-72
2022/04/02 00:31:48;;;;;;;57.85;38.72;;;;;;;4.34;94.67;98576.41;5092553;28;20142;-72
2022/04/02 00:34:14;;;;;;;63.55;40.10;;;;;;;4.41;94.32;98582.84;5093822;28;20048;-72
2022/04/02 00:36:40;;;;;;;56.38;37.63;;;;;;;4.34;94.23;98581.72;5095247;28;20020;-72
2022/04/02 00:39:07;;;;;;;55.90;37.88;;;;;;;4.22;95.10;98578.38;5093643;28;20463;-72
2022/04/02 00:41:32;;;;;;;54.17;37.30;;;;;;;4.33;94.32;98588.03;5098218;28;20387;-72
2022/04/02 00:44:06;;;;;;;54.88;36.40;;;;;;;4.39;93.96;98587.47;5094360;28;20024;-67
2022/04/02 00:46:31;;;;;;;57.25;37.80;;;;;;;4.26;94.22;98582.41;5094937;28;20580;-67
2022/04/02 00:48:57;;;;;;;53.45;36.92;;;;;;;4.21;95.14;98583.81;5092251;28;20028;-67
2022/04/02 00:51:23;;;;;;;56.80;37.75;;;;;;;4.19;94.59;98580.44;5094156;28;20028;-68
2022/04/02 00:53:50;;;;;;;58.10;37.80;;;;;;;4.23;94.22;98577.38;5105536;28;20498;-68
2022/04/02 00:56:16;;;;;;;52.50;36.30;;;;;;;4.19;94.04;98567.19;5098320;28;20127;-68
2022/04/02 00:58:42;;;;;;;54.20;36.95;;;;;;;4.03;94.07;98545.69;5097647;28;20054;-68
2022/04/02 01:01:08;;;;;;;57.17;37.97;;;;;;;4.23;93.44;98574.72;5094610;28;20051;-67
2022/04/02 01:03:35;;;;;;;58.78;38.42;;;;;;;4.10;93.55;98568.03;5095684;28;20730;-67
2022/04/02 01:06:00;;;;;;;60.08;38.13;;;;;;;4.00;94.77;98565.34;5092348;28;20057;-67
2022/04/02 01:08:26;;;;;;;56.88;37.83;;;;;;;3.97;94.57;98564.78;5088475;28;20073;-68
2022/04/02 01:10:55;;;;;;;63.88;41.38;;;;;;;3.91;94.47;98574.13;5089296;28;20035;-67
2022/04/02 01:13:22;;;;;;;54.72;37.35;;;;;;;3.83;94.29;98563.34;5091913;28;20078;-67
2022/04/02 01:15:48;;;;;;;57.78;38.90;;;;;;;3.92;94.25;98580.25;5091426;28;20456;-68
2022/04/02 01:18:14;;;;;;;59.55;36.10;;;;;;;3.90;94.46;98587.53;5097442;28;20042;-68
2022/04/02 01:20:39;;;;;;;60.38;38.15;;;;;;;3.77;94.79;98579.78;5094824;28;20464;-67
2022/04/02 01:23:05;;;;;;;61.53;38.97;;;;;;;3.85;95.28;98590.56;5077272;28;20028;-67
2022/04/02 01:25:34;;;;;;;60.13;38.17;;;;;;;3.73;95.43;98581.03;5098658;28;20027;-67
2022/04/02 01:28:00;;;;;;;56.15;36.70;;;;;;;3.83;95.96;98597.81;5092910;28;20387;-67
2022/04/02 01:30:30;;;;;;;60.45;38.70;;;;;;;3.82;94.61;98590.00;5097205;28;20062;-67
2022/04/02 01:32:55;;;;;;;60.08;38.63;;;;;;;3.85;94.14;98600.34;5089664;28;20516;-67
2022/04/02 01:35:22;;;;;;;59.00;38.60;;;;;;;3.64;94.50;98581.03;5089224;28;20024;-67
2022/04/02 01:37:49;;;;;;;60.13;39.03;;;;;;;3.62;94.90;98591.75;5094308;28;20020;-67
2022/04/02 01:40:15;;;;;;;59.05;38.35;;;;;;;3.59;95.45;98596.47;5102697;28;20027;-67
2022/04/02 01:42:41;;;;;;;58.03;37.78;;;;;;;3.59;95.66;98599.97;5092808;28;20395;-67
2022/04/02 01:45:07;;;;;;;60.05;38.30;;;;;;;3.62;95.03;98593.56;5093115;28;20116;-67
2022/04/02 01:47:32;;;;;;;62.17;40.00;;;;;;;3.64;94.83;98594.28;5094350;28;20102;-67
2022/04/02 01:49:58;;;;;;;59.42;38.92;;;;;;;3.45;95.88;98592.34;5099516;28;20044;-67
2022/04/02 01:52:23;;;;;;;57.20;37.38;;;;;;;3.67;94.65;98609.88;5089158;28;20038;-67
2022/04/02 01:54:49;;;;;;;62.03;38.75;;;;;;;3.52;95.56;98609.41;5091584;28;20024;-68
2022/04/02 01:57:16;;;;;;;60.47;38.47;;;;;;;3.58;94.87;98618.66;5096981;28;20031;-68
2022/04/02 01:59:44;;;;;;;61.25;39.00;;;;;;;3.53;95.54;98620.84;5091496;28;20028;-68
2022/04/02 02:02:10;;;;;;;59.20;37.95;;;;;;;3.47;95.50;98614.28;5088937;28;20020;-67
2022/04/02 02:04:39;;;;;;;58.80;37.40;;;;;;;3.36;95.50;98610.88;5094128;28;20114;-68
2022/04/02 02:07:06;;;;;;;60.45;39.65;;;;;;;3.36;96.08;98629.41;5096404;28;20491;-68
2022/04/02 02:09:33;;;;;;;58.33;36.88;;;;;;;3.37;96.30;98615.19;5090009;28;20044;-68
2022/04/02 02:11:58;;;;;;;62.50;37.75;;;;;;;3.29;95.79;98615.84;5096697;28;20428;-68
2022/04/02 02:14:24;;;;;;;63.22;38.88;;;;;;;3.31;95.35;98602.47;5091122;28;20089;-67
2022/04/02 02:16:50;;;;;;;60.08;38.10;;;;;;;3.40;95.23;98607.81;5096540;28;20387;-67
2022/04/02 02:19:15;;;;;;;60.15;37.72;;;;;;;3.49;94.75;98630.88;5092326;28;20024;-68
2022/04/02 02:21:41;;;;;;;59.20;38.08;;;;;;;3.43;95.14;98628.75;5088658;28;20523;-68
2022/04/02 02:24:08;;;;;;;60.10;38.08;;;;;;;3.48;94.58;98629.19;5095277;28;20035;-68
2022/04/02 02:26:34;;;;;;;63.78;38.83;;;;;;;3.41;94.59;98627.19;5095677;28;20073;-68
2022/04/02 02:29:00;;;;;;;64.03;40.10;;;;;;;3.36;94.95;98648.81;5098660;28;20047;-68
2022/04/02 02:31:25;;;;;;;59.00;38.40;;;;;;;3.30;95.95;98648.47;5094217;28;20110;-68
2022/04/02 02:36:35;;;;;;;61.45;38.53;;;;;;;3.37;95.15;98649.63;5099565;28;20039;-68
2022/04/02 02:39:00;;;;;;;57.70;36.35;;;;;;;3.30;94.82;98635.22;5097098;28;20024;-68
2022/04/02 02:41:26;;;;;;;61.15;38.67;;;;;;;3.26;95.23;98629.34;5096465;28;20024;-68
2022/04/02 02:43:52;;;;;;;62.67;39.55;;;;;;;3.21;95.14;98617.47;5093885;28;20081;-68
2022/04/02 02:46:17;;;;;;;59.85;36.10;;;;;;;3.33;94.96;98633.16;5099353;28;20119;-67
2022/04/02 02:48:47;;;;;;;62.75;38.30;;;;;;;3.28;94.80;98635.34;5099557;28;20626;-68
2022/04/02 02:51:13;;;;;;;60.08;36.40;;;;;;;3.33;93.95;98645.56;5097956;28;20539;-67
2022/04/02 02:53:39;;;;;;;58.33;36.80;;;;;;;3.14;94.52;98637.50;5099058;28;20475;-68
2022/04/02 02:56:05;;;;;;;61.28;38.25;;;;;;;3.13;95.49;98646.41;5093427;28;20121;-68
2022/04/02 02:58:30;;;;;;;57.30;37.13;;;;;;;3.20;94.78;98642.28;5096511;28;20030;-67
2022/04/02 03:00:56;;;;;;;59.25;38.22;;;;;;;3.26;93.94;98647.88;5093536;28;20262;-68
2022/04/02 03:03:22;;;;;;;60.17;37.28;;;;;;;3.16;94.37;98649.63;5094587;28;20020;-67
2022/04/02 03:05:48;;;;;;;57.80;37.00;;;;;;;3.13;94.33;98643.78;5097761;28;20035;-68
2022/04/02 03:08:15;;;;;;;60.97;37.42;;;;;;;2.99;95.86;98639.63;5099070;28;20395;-67
2022/04/02 03:10:41;;;;;;;60.88;37.40;;;;;;;2.89;95.99;98624.63;5098581;28;20028;-68
2022/04/02 03:13:07;;;;;;;56.90;37.25;;;;;;;2.88;95.76;98630.91;5095969;28;20027;-68
2022/04/02 03:15:33;;;;;;;57.42;37.22;;;;;;;2.99;95.24;98642.28;5106095;28;20087;-69
2022/04/02 03:18:06;;;;;;;57.25;35.90;;;;;;;3.01;95.10;98647.44;5094871;28;20043;-67
2022/04/02 03:20:33;;;;;;;59.13;37.47;;;;;;;2.95;95.06;98650.59;5103238;28;20051;-68
2022/04/02 03:22:58;;;;;;;57.83;35.67;;;;;;;2.94;94.74;98644.47;5078441;28;20272;-68
2022/04/02 03:25:24;;;;;;;59.28;36.85;;;;;;;2.96;94.77;98634.59;5092397;28;20048;-67
2022/04/02 03:27:50;;;;;;;56.97;35.97;;;;;;;2.89;95.43;98635.22;5102868;28;20012;-68
2022/04/02 03:30:20;;;;;;;56.35;35.08;;;;;;;2.83;95.75;98628.63;5100293;28;20052;-68
2022/04/02 03:32:46;;;;;;;54.20;35.63;;;;;;;2.81;95.69;98638.53;5095836;28;20031;-68
2022/04/02 03:35:14;;;;;;;52.92;33.95;;;;;;;2.77;96.55;98645.03;5087119;28;20080;-68
2022/04/02 03:37:41;;;;;;;54.33;33.88;;;;;;;2.80;96.77;98641.31;5093856;28;20024;-67
2022/04/02 03:40:10;;;;;;;53.95;33.97;;;;;;;2.93;94.71;98657.84;5089567;28;20012;-67
2022/04/02 03:42:36;;;;;;;51.28;33.70;;;;;;;3.04;93.94;98657.78;5095832;28;20491;-67
2022/04/02 03:45:03;;;;;;;52.15;33.88;;;;;;;2.88;94.41;98655.56;5095807;28;20024;-67
2022/04/02 03:47:29;;;;;;;53.75;34.28;;;;;;;2.90;93.97;98661.56;5096206;28;20368;-72
2022/04/02 03:49:54;;;;;;;52.42;33.78;;;;;;;2.89;94.12;98662.53;5099355;28;20028;-71
2022/04/02 03:52:20;;;;;;;53.05;35.85;;;;;;;2.92;94.49;98653.50;5091536;28;20032;-71
2022/04/02 03:54:45;;;;;;;54.03;34.47;;;;;;;2.83;94.44;98652.44;5093898;28;20031;-72
2022/04/02 03:57:13;;;;;;;52.13;34.65;;;;;;;2.94;94.75;98667.44;5099205;28;20158;-72
2022/04/02 03:59:41;;;;;;;57.00;35.53;;;;;;;2.91;94.73;98667.72;5099082;28;20031;-72
2022/04/02 04:02:07;;;;;;;52.90;35.35;;;;;;;2.91;94.67;98679.16;5100992;28;20031;-71
2022/04/02 04:04:33;;;;;;;52.65;33.30;;;;;;;2.92;94.66;98703.78;5100507;28;20096;-71
2022/04/02 04:06:59;;;;;;;52.38;34.45;;;;;;;2.93;94.98;98697.56;5098460;28;20117;-71
2022/04/02 04:09:25;;;;;;;49.53;33.30;;;;;;;3.08;93.92;98710.34;5099549;28;20164;-71
2022/04/02 04:11:51;;;;;;;50.67;33.78;;;;;;;3.05;93.97;98704.47;5094789;28;20044;-71
2022/04/02 04:14:16;;;;;;;51.40;35.00;;;;;;;3.04;94.52;98716.03;5097646;28;20021;-71
2022/04/02 04:16:42;;;;;;;56.05;34.40;;;;;;;2.98;94.48;98700.63;5092921;28;20165;-72
2022/04/02 04:19:08;;;;;;;55.25;34.97;;;;;;;2.91;94.24;98694.19;5096431;28;20060;-71
2022/04/02 04:21:34;;;;;;;53.22;34.53;;;;;;;2.96;94.93;98700.78;5098029;28;20175;-72
2022/04/02 04:24:00;;;;;;;50.60;34.08;;;;;;;3.05;93.36;98707.09;5100008;28;20027;-72
2022/04/02 04:26:26;;;;;;;52.13;33.95;;;;;;;3.04;93.25;98708.94;5094594;28;20081;-67
2022/04/02 04:28:52;;;;;;;54.20;33.60;;;;;;;3.10;93.22;98718.16;5100664;28;20027;-67
2022/04/02 04:31:18;;;;;;;47.72;32.22;;;;;;;3.17;92.97;98714.88;5079479;28;20031;-67
2022/04/02 04:33:44;;;;;;;50.92;32.70;;;;;;;3.15;92.79;98708.03;5105561;28;20035;-67
2022/04/02 04:36:10;;;;;;;48.60;32.35;;;;;;;3.04;93.64;98705.44;5095683;28;20031;-67
2022/04/02 04:38:36;;;;;;;50.47;34.25;;;;;;;3.15;93.67;98719.47;5096450;28;20091;-67
2022/04/02 04:41:02;;;;;;;54.95;34.25;;;;;;;3.05;93.73;98731.78;5099609;28;20031;-67
2022/04/02 04:43:28;;;;;;;48.65;31.90;;;;;;;3.17;93.17;98727.28;5096998;28;20157;-68
2022/04/02 04:45:53;;;;;;;49.65;32.55;;;;;;;3.16;92.11;98717.66;5094771;28;20360;-71
2022/04/02 04:48:20;;;;;;;47.95;31.67;;;;;;;3.09;92.49;98708.56;5094223;28;20032;-71
2022/04/02 04:50:47;;;;;;;46.58;31.52;;;;;;;3.19;91.97;98720.06;5078857;28;20028;-72
2022/04/02 04:53:12;;;;;;;47.60;32.97;;;;;;;3.24;92.42;98723.16;5095560;28;20020;-71
2022/04/02 04:55:38;;;;;;;50.60;31.30;;;;;;;3.28;91.85;98728.06;5094714;28;20067;-72
2022/04/02 04:58:03;;;;;;;44.22;30.35;;;;;;;3.26;91.82;98726.53;5088983;28;20028;-72
2022/04/02 05:00:28;;;;;;;45.20;30.77;;;;;;;3.16;91.94;98722.97;5093076;28;20110;-72
2022/04/02 05:02:54;;;;;;;50.38;33.38;;;;;;;3.13;92.66;98729.31;5097380;28;20028;-72
2022/04/02 05:05:19;;;;;;;53.47;33.67;;;;;;;3.10;93.42;98734.06;5094014;28;20122;-72
2022/04/02 05:07:45;;;;;;;48.70;32.85;;;;;;;3.07;92.96;98719.28;5094434;28;20028;-72
2022/04/02 05:10:11;;;;;;;49.63;32.65;;;;;;;3.16;92.93;98733.56;5096612;28;20050;-67
2022/04/02 05:12:38;;;;;;;46.85;31.02;;;;;;;3.14;92.74;98731.03;5092129;28;20096;-72
2022/04/02 05:15:05;;;;;;;49.05;32.38;;;;;;;3.14;92.64;98730.19;5097094;28;20476;-71
2022/04/02 05:17:31;;;;;;;52.45;33.17;;;;;;;3.23;92.85;98737.38;5092208;28;20035;-72
2022/04/02 05:19:57;;;;;;;48.67;30.63;;;;;;;3.29;92.20;98737.69;5093661;28;20020;-67
2022/04/02 05:22:22;;;;;;;49.72;33.08;;;;;;;3.13;92.07;98725.88;5095203;28;20527;-67
2022/04/02 05:24:48;;;;;;;50.50;33.63;;;;;;;3.11;93.52;98741.88;5092181;28;20039;-67
2022/04/02 05:27:14;;;;;;;50.00;32.05;;;;;;;3.08;93.79;98733.34;5094307;28;20020;-65
2022/04/02 05:29:39;;;;;;;48.80;32.53;;;;;;;3.21;92.40;98740.16;5097402;28;20027;-70
2022/04/02 05:32:05;;;;;;;46.22;31.88;;;;;;;3.15;92.34;98737.16;5094656;28;20031;-70
2022/04/02 05:34:31;;;;;;;46.17;31.33;;;;;;;3.20;91.31;98741.13;5095813;28;20357;-70
2022/04/02 05:36:57;;;;;;;48.40;32.13;;;;;;;3.35;90.96;98742.47;5080190;28;20110;-72
2022/04/02 05:39:23;;;;;;;45.55;31.08;;;;;;;3.34;91.40;98750.56;5093771;28;20765;-71
2022/04/02 05:41:49;;;;;;;48.15;32.00;;;;;;;3.43;89.56;98739.19;5098155;28;20035;-68
2022/04/02 05:44:14;;;;;;;46.17;31.80;;;;;;;3.27;90.65;98739.63;5106439;28;20701;-68
2022/04/02 05:46:40;;;;;;;47.00;32.45;;;;;;;3.30;91.07;98727.94;5097183;28;20064;-68
2022/04/02 05:49:05;;;;;;;49.30;32.08;;;;;;;3.47;89.84;98738.81;5102126;28;20032;-68
2022/04/02 05:51:31;;;;;;;47.28;32.17;;;;;;;3.43;90.20;98734.75;5096604;28;20107;-67
2022/04/02 05:53:57;;;;;;;48.28;32.05;;;;;;;3.38;90.52;98728.97;5090185;28;20023;-68
2022/04/02 05:56:23;;;;;;;47.55;32.45;;;;;;;3.51;91.25;98742.06;5082562;28;20063;-67
2022/04/02 05:58:51;;;;;;;46.42;31.23;;;;;;;3.79;88.17;98742.22;5096111;28;20038;-67
2022/04/02 06:01:17;;;;;;;48.85;31.05;;;;;;;3.79;88.57;98747.53;5082410;28;20032;-67
2022/04/02 06:03:42;;;;;;;41.60;29.40;;;;;;;4.00;86.42;98740.38;5078888;28;20093;-67
2022/04/02 06:06:08;;;;;;;48.45;30.33;;;;;;;3.83;87.07;98725.06;5093842;28;20502;-68
2022/04/02 06:08:34;;;;;;;48.58;32.30;;;;;;;3.96;86.19;98752.22;5099862;28;20043;-67
2022/04/02 06:11:01;;;;;;;48.05;31.90;;;;;;;3.86;86.66;98742.53;5093634;28;20452;-67
2022/04/02 06:13:27;;;;;;;44.88;30.63;;;;;;;3.99;85.48;98730.75;5092534;28;20422;-67
2022/04/02 06:15:53;;;;;;;45.95;31.52;;;;;;;3.93;85.79;98744.53;5097979;28;20376;-67
2022/04/02 06:18:18;;;;;;;47.47;31.17;;;;;;;3.95;87.45;98745.25;5079523;28;20044;-68
2022/04/02 06:20:45;;;;;;;46.97;32.42;;;;;;;4.08;86.39;98735.25;5094192;28;20036;-67
2022/04/02 06:23:11;;;;;;;46.35;30.67;;;;;;;4.19;84.53;98737.81;5090914;28;20035;-67
2022/04/02 06:25:36;;;;;;;47.08;30.08;;;;;;;4.21;84.40;98753.59;5077606;28;20038;-67
2022/04/02 06:28:02;;;;;;;46.25;32.60;;;;;;;4.13;86.15;98746.28;5094138;28;20023;-68
2022/04/02 06:30:27;;;;;;;42.97;30.90;;;;;;;4.33;84.89;98757.84;5094026;28;20067;-66
2022/04/02 06:32:54;;;;;;;45.42;30.23;;;;;;;4.34;84.45;98756.84;5098255;28;20020;-68
2022/04/02 06:35:19;;;;;;;44.03;30.15;;;;;;;4.51;83.16;98742.94;5093725;28;20379;-68
2022/04/02 06:37:47;;;;;;;43.03;28.70;;;;;;;4.59;81.47;98759.03;5097745;28;20043;-68
2022/04/02 06:40:13;;;;;;;43.80;30.67;;;;;;;4.56;80.15;98748.69;5090303;28;20432;-66
2022/04/02 06:42:38;;;;;;;44.20;30.05;;;;;;;4.65;80.85;98761.16;5092590;28;20074;-68
2022/04/02 06:45:05;;;;;;;47.83;31.20;;;;;;;4.68;81.47;98750.28;5093905;28;20852;-67
2022/04/02 06:47:31;;;;;;;43.42;28.83;;;;;;;4.66;80.35;98750.41;5097282;28;20032;-68
2022/04/02 06:49:58;;;;;;;43.47;30.27;;;;;;;4.49;81.30;98739.59;5092090;28;20032;-68
2022/04/02 06:52:24;;;;;;;45.40;30.50;;;;;;;4.60;81.14;98748.28;5076692;28;20028;-66
2022/04/02 06:54:49;;;;;;;43.03;29.73;;;;;;;4.51;82.10;98750.91;5084380;28;20031;-69
2022/04/02 06:57:21;;;;;;;44.75;29.25;;;;;;;4.92;79.40;98769.31;5095116;28;20391;-67
2022/04/02 06:59:47;;;;;;;43.05;29.23;;;;;;;4.85;78.69;98767.34;5091983;28;20056;-67
2022/04/02 07:02:13;;;;;;;45.92;31.38;;;;;;;4.73;79.54;98769.28;5076563;28;20578;-68
2022/04/02 07:04:39;;;;;;;41.17;30.00;;;;;;;4.75;79.68;98778.78;5094341;28;20116;-68
2022/04/02 07:07:04;;;;;;;45.33;29.48;;;;;;;4.59;80.64;98773.13;5096216;28;20060;-67
2022/04/02 07:09:30;;;;;;;41.13;29.42;;;;;;;4.57;80.79;98780.41;5091859;28;20036;-68
2022/04/02 07:11:55;;;;;;;43.92;30.52;;;;;;;4.57;81.11;98771.59;5097548;28;20460;-67
2022/04/02 07:14:21;;;;;;;39.70;28.83;;;;;;;4.62;81.13;98774.72;5091370;28;20039;-67
2022/04/02 07:16:47;;;;;;;44.75;29.85;;;;;;;4.70;80.79;98785.47;5097151;28;20067;-66
2022/04/02 07:19:14;;;;;;;43.55;28.77;;;;;;;4.73;80.36;98785.22;5096466;28;20051;-66
2022/04/02 07:21:43;;;;;;;46.75;30.17;;;;;;;4.67;80.84;98785.75;5099306;28;20031;-68
2022/04/02 07:24:10;;;;;;;47.35;29.90;;;;;;;4.71;81.45;98774.72;5104534;28;20080;-68
2022/04/02 07:26:37;;;;;;;42.95;29.25;;;;;;;4.88;81.38;98777.69;5097728;28;20039;-67
2022/04/02 07:29:03;;;;;;;41.63;29.92;;;;;;;5.05;80.18;98780.53;5099741;28;20038;-67
2022/04/02 07:31:29;;;;;;;43.67;29.38;;;;;;;4.98;81.35;98779.41;5094230;28;20058;-66
2022/04/02 07:33:55;;;;;;;42.95;30.58;;;;;;;5.08;80.31;98779.41;5093967;28;20064;-72
2022/04/02 07:36:35;;;;;;;41.60;29.38;;;;;;;5.35;77.63;98787.56;5099200;28;20382;-71
2022/04/02 07:39:15;;;;;;;41.67;29.80;;;;;;;5.54;76.13;98782.22;5099108;28;20593;-71
2022/04/02 07:42:01;;;;;;;40.72;28.70;;;;;;;5.41;77.60;98776.34;5095915;28;20052;-72
2022/04/02 07:44:36;;;;;;;39.70;28.23;;;;;;;5.52;76.99;98777.06;5101726;28;20027;-72
2022/04/02 07:47:02;;;;;;;40.15;29.08;;;;;;;5.65;76.42;98780.28;5093190;28;20042;-73
2022/04/02 07:49:30;;;;;;;40.47;29.35;;;;;;;5.84;74.55;98764.28;5100147;28;20581;-73
2022/04/02 07:51:56;;;;;;;39.75;28.98;;;;;;;5.98;74.70;98774.50;5095866;28;20043;-72
2022/04/02 07:54:25;;;;;;;40.20;28.92;;;;;;;6.05;75.40;98778.25;5098624;28;20558;-72
2022/04/02 07:56:57;;;;;;;37.65;27.33;;;;;;;6.11;73.35;98783.03;5092686;28;20672;-72
2022/04/02 07:59:32;;;;;;;38.88;27.98;;;;;;;6.08;73.57;98759.34;5096108;28;20022;-72
2022/04/02 08:01:59;;;;;;;37.35;27.88;;;;;;;6.22;73.96;98790.81;5090493;28;20407;-73
2022/04/02 08:04:25;;;;;;;39.03;27.67;;;;;;;6.20;73.58;98790.16;5098232;28;20095;-72
2022/04/02 08:06:52;;;;;;;38.17;27.15;;;;;;;6.13;74.00;98783.69;5101406;28;20483;-73
2022/04/02 08:09:19;;;;;;;39.55;28.15;;;;;;;6.08;74.68;98790.44;5095805;28;20036;-71
2022/04/02 08:11:48;;;;;;;37.55;26.92;;;;;;;6.09;74.81;98790.28;5104949;28;20118;-73
2022/04/02 08:14:15;;;;;;;40.03;28.77;;;;;;;6.10;74.79;98791.97;5101068;28;20031;-71
2022/04/02 08:16:45;;;;;;;40.38;28.80;;;;;;;6.21;74.32;98794.47;5098024;28;20479;-73
2022/04/02 08:19:12;;;;;;;36.97;27.63;;;;;;;6.21;73.58;98770.53;5093444;28;20126;-73
2022/04/02 08:21:38;;;;;;;41.00;29.85;;;;;;;6.28;74.33;98798.22;5083464;28;20047;-72
2022/04/02 08:24:04;;;;;;;39.10;28.42;;;;;;;6.21;74.77;98791.81;5091493;28;20057;-72
2022/04/02 08:26:56;;;;;;;40.17;29.10;;;;;;;6.48;73.26;98804.34;5087188;28;20028;-72
2022/04/02 08:29:34;;;;;;;38.40;28.23;;;;;;;6.46;73.52;98801.81;5083211;28;20093;-73
2022/04/02 08:32:09;;;;;;;40.33;28.50;;;;;;;6.49;72.80;98795.34;5094053;28;20035;-71
2022/04/02 08:34:56;;;;;;;41.97;28.50;;;;;;;6.54;73.95;98817.91;5087869;28;20032;-72
2022/04/02 08:37:48;;;;;;;38.58;27.92;;;;;;;6.65;74.12;98830.19;5097158;28;20541;-72
2022/04/02 08:40:51;;;;;;;38.25;26.35;;;;;;;6.73;71.46;98822.31;5095917;28;20181;-72
2022/04/02 08:43:47;;;;;;;39.92;28.05;;;;;;;6.77;71.43;98829.00;5096289;28;20471;-70
2022/04/02 08:46:31;;;;;;;37.17;28.38;;;;;;;6.89;70.25;98834.00;5092748;28;20043;-73
2022/04/02 08:48:58;;;;;;;40.10;28.30;;;;;;;6.98;70.59;98827.81;5092848;28;20024;-73
2022/04/02 08:51:41;;;;;;;35.33;27.27;;;;;;;7.09;68.98;98831.25;5095703;28;20440;-72
2022/04/02 08:54:23;;;;;;;36.67;27.23;;;;;;;6.87;70.29;98838.63;5093379;28;20152;-68
2022/04/02 08:56:55;;;;;;;36.15;27.35;;;;;;;6.94;69.13;98825.56;5090035;28;20511;-68
2022/04/02 08:59:37;;;;;;;37.08;27.20;;;;;;;7.09;69.26;98840.06;5096811;28;20391;-67
2022/04/02 09:02:32;;;;;;;38.25;27.17;;;;;;;6.86;69.05;98844.97;5095598;28;20104;-69
2022/04/02 09:05:09;;;;;;;;;;;;;;;6.86;70.12;98850.28;5082798;28;20066;-72
2022/04/02 09:07:56;;;;;;;35.40;25.70;;;;;;;6.90;70.02;98861.47;5079025;28;19920;-71
2022/04/02 09:10:47;;;;;;;38.10;27.20;;;;;;;6.89;69.62;98859.81;5095534;28;20039;-72
2022/04/02 09:13:40;;;;;;;35.03;26.60;;;;;;;6.98;69.50;98864.25;5095690;28;20023;-72
2022/04/02 09:16:09;;;;;;;39.00;28.80;;;;;;;6.91;71.30;98866.66;5101121;28;20441;-71
2022/04/02 09:18:36;;;;;;;35.17;26.20;;;;;;;6.99;71.05;98872.09;5089959;28;20032;-72
2022/04/02 09:21:08;;;;;;;38.15;28.73;;;;;;;7.15;69.49;98859.97;5092919;28;20111;-71
2022/04/02 09:23:45;;;;;;;37.75;27.88;;;;;;;7.12;70.74;98858.44;5095245;28;20024;-67
2022/04/02 09:26:53;;;;;;;37.35;27.45;;;;;;;7.32;70.01;98857.31;5092403;28;20034;-68
2022/04/02 09:29:28;;;;;;;37.20;27.15;;;;;;;7.44;68.93;98856.13;5024970;28;20049;-69
2022/04/02 09:31:53;;;;;;;38.08;28.02;;;;;;;7.47;70.17;98865.66;5089680;28;20656;-67
2022/04/02 09:34:34;;;;;;;37.08;28.88;;;;;;;7.52;71.60;98860.72;5094170;28;20107;-67
2022/04/02 09:37:13;;;;;;;37.80;27.50;;;;;;;7.57;71.05;98855.75;5076849;28;20035;-68
2022/04/02 09:39:41;;;;;;;34.33;27.38;;;;;;;7.53;71.48;98859.72;5089878;28;20527;-68
2022/04/02 09:42:30;;;;;;;40.53;29.23;;;;;;;7.39;73.71;98857.56;5091385;28;20048;-66
2022/04/02 09:45:03;;;;;;;41.45;30.15;;;;;;;7.41;75.00;98868.94;5074436;28;20175;-72
2022/04/02 09:47:47;;;;;;;41.72;29.92;;;;;;;7.42;74.83;98862.59;5095140;28;20113;-72
2022/04/02 09:50:17;;;;;;;36.65;29.33;;;;;;;7.40;75.74;98869.91;5113205;28;20067;-73
2022/04/02 09:53:08;;;;;;;44.72;30.48;;;;;;;7.38;77.17;98861.25;5095651;28;20074;-71
2022/04/02 09:55:59;;;;;;;44.83;31.10;;;;;;;7.35;77.19;98867.69;5103508;28;20479;-70
2022/04/02 09:58:55;;;;;;;40.45;30.27;;;;;;;7.35;76.61;98866.88;5114193;28;20051;-72
2022/04/02 10:02:03;;;;;;;43.80;30.83;;;;;;;7.39;76.08;98870.91;5101769;28;20107;-70
2022/04/02 10:04:53;;;;;;;41.53;30.58;;;;;;;7.26;77.50;98873.09;5095243;28;20052;-72
2022/04/02 10:07:40;;;;;;;42.08;29.73;;;;;;;7.17;78.58;98873.97;5095915;28;20032;-71
2022/04/02 10:10:08;;;;;;;41.40;30.55;;;;;;;7.22;78.18;98871.72;5075726;28;20040;-71
2022/04/02 10:12:36;;;;;;;41.25;30.30;;;;;;;7.13;79.83;98864.59;5098621;28;20063;-72
2022/04/02 10:15:03;;;;;;;44.25;32.28;;;;;;;7.16;80.56;98880.31;5093894;28;20479;-70
2022/04/02 10:17:31;;;;;;;41.95;32.65;;;;;;;7.17;81.12;98879.31;5101074;28;20031;-71
2022/04/02 10:19:59;;;;;;;44.75;32.63;;;;;;;7.28;80.60;98871.13;5091015;28;20101;-70
2022/04/02 10:22:41;;;;;;;41.00;30.50;;;;;;;7.32;80.38;98876.00;5091380;28;20106;-70
2022/04/02 10:25:10;;;;;;;42.95;31.38;;;;;;;7.38;80.48;98875.41;5093762;28;20503;-70
2022/04/02 10:27:38;;;;;;;41.30;30.58;;;;;;;7.52;77.88;98874.06;5093909;28;20089;-71
2022/04/02 10:30:07;;;;;;;45.40;31.02;;;;;;;7.61;76.33;98876.63;5087027;28;20042;-71
2022/04/02 10:33:26;;;;;;;43.03;32.17;;;;;;;7.67;77.61;98876.03;5081701;28;20068;-70
2022/04/02 10:35:46;;;;;;;40.42;30.52;;;;;;;7.69;78.70;98879.41;5087657;28;20040;-71
2022/04/02 10:38:40;;;;;;;40.65;32.38;;;;;;;7.83;77.45;98896.72;5087099;28;20020;-70
2022/04/02 10:41:14;;;;;;;42.42;31.40;;;;;;;7.89;78.19;98882.75;5094113;28;20027;-71
2022/04/02 10:43:39;;;;;;;;;;;;;;;7.98;76.83;98892.50;5089633;28;20468;-71
2022/04/02 10:46:06;;;;;;;41.15;30.52;;;;;;;8.10;76.78;98891.28;5089161;28;19915;-70
2022/04/02 10:48:37;;;;;;;39.13;29.48;;;;;;;8.36;72.96;98885.03;5087525;28;20116;-71
2022/04/02 10:51:04;;;;;;;38.15;29.23;;;;;;;8.26;72.91;98867.44;5090356;28;20053;-71
2022/04/02 10:53:41;;;;;;;40.30;31.17;;;;;;;8.45;71.97;98885.94;5093536;28;20032;-71
2022/04/02 10:56:15;;;;;;;38.33;29.17;;;;;;;8.58;71.17;98884.50;5091750;28;20039;-71
2022/04/02 10:58:48;;;;;;;40.47;30.45;;;;;;;8.59;71.78;98880.88;5101037;28;20050;-72
2022/04/02 11:01:18;;;;;;;44.17;30.52;;;;;;;8.71;70.06;98887.59;5110651;28;20084;-72
2022/04/02 11:03:53;;;;;;;38.00;28.80;;;;;;;8.85;68.80;98886.19;5113323;28;20046;-72
2022/04/02 11:06:48;;;;;;;38.00;29.75;;;;;;;8.77;68.56;98891.50;5101279;28;20024;-71
2022/04/02 11:09:27;;;;;;;36.17;28.98;;;;;;;8.74;68.55;98881.13;5111245;28;20051;-72
2022/04/02 11:11:53;;;;;;;37.72;29.00;;;;;;;8.69;69.19;98886.09;5113152;28;20107;-71
2022/04/02 11:14:22;;;;;;;37.72;30.98;;;;;;;8.83;67.70;98870.31;5117134;28;20031;-72
2022/04/02 11:16:48;;;;;;;37.83;29.75;;;;;;;8.77;67.53;98875.47;5110657;28;20020;-71
2022/04/02 11:22:06;;;;;;;35.28;28.38;;;;;;;8.76;67.32;98873.75;5110716;28;20062;-72
2022/04/02 11:24:38;;;;;;;;;;;;;;;8.83;67.53;98880.16;5093278;28;20031;-72
2022/04/02 11:27:05;;;;;;;37.58;26.77;;;;;;;8.80;65.72;98881.31;5111706;28;19994;-72
2022/04/02 11:29:33;;;;;;;35.10;27.13;;;;;;;8.65;67.32;98885.56;5107979;28;20095;-71
2022/04/02 11:32:01;;;;;;;36.97;28.40;;;;;;;8.71;67.94;98884.09;5107440;28;20540;-71
2022/04/02 11:34:28;;;;;;;37.90;28.88;;;;;;;8.63;67.25;98868.84;5115562;28;20024;-72
2022/04/02 11:37:03;;;;;;;37.40;28.60;;;;;;;8.66;67.63;98886.41;5090481;28;20074;-71
2022/04/02 11:39:43;;;;;;;36.20;27.92;;;;;;;8.57;67.50;98884.66;5096677;28;20036;-70
2022/04/02 11:42:14;;;;;;;34.50;27.35;;;;;;;8.47;68.03;98895.47;5095884;28;20135;-69